createdAt,value
2023-02-17T00:00:31.270Z,98380.69
2023-02-17T00:03:00.510Z,98379.16
2023-02-17T00:05:29.121Z,98383.84
2023-02-17T00:07:57.426Z,98383.13
2023-02-17T00:10:28.132Z,98391.31
2023-02-17T00:12:56.371Z,98388.00
2023-02-17T00:15:24.592Z,98385.50
2023-02-17T00:17:52.837Z,98378.03
2023-02-17T00:20:21.362Z,98382.56
2023-02-17T00:22:49.644Z,98386.06
2023-02-17T00:25:18.038Z,98379.00
2023-02-17T00:27:47.642Z,98383.75
2023-02-17T00:30:17.319Z,98387.06
2023-02-17T00:32:45.581Z,98381.69
2023-02-17T00:35:14.347Z,98377.13
2023-02-17T00:37:45.595Z,98381.25
2023-02-17T00:40:14.339Z,98392.13
2023-02-17T00:42:42.932Z,98397.38
2023-02-17T00:45:12.592Z,98392.44
2023-02-17T00:47:40.978Z,98399.06
2023-02-17T00:50:11.496Z,98398.44
2023-02-17T00:52:39.736Z,98388.56
2023-02-17T00:55:09.300Z,98388.13
2023-02-17T00:57:37.653Z,98380.63
2023-02-17T01:00:07.367Z,98382.47
2023-02-17T01:02:37.080Z,98379.19
2023-02-17T01:05:05.998Z,98388.72
2023-02-17T01:07:34.356Z,98378.75
2023-02-17T01:10:02.576Z,98384.88
2023-02-17T01:12:30.836Z,98383.22
2023-02-17T01:14:59.786Z,98376.38
2023-02-17T01:17:28.570Z,98374.34
2023-02-17T01:19:58.629Z,98373.31
2023-02-17T01:22:27.173Z,98370.13
2023-02-17T01:24:56.612Z,98376.63
2023-02-17T01:27:25.089Z,98368.72
2023-02-17T01:29:53.318Z,98367.81
2023-02-17T01:32:21.748Z,98370.78
2023-02-17T01:34:50.401Z,98370.78
2023-02-17T01:37:20.021Z,98371.31
2023-02-17T01:39:48.257Z,98368.47
2023-02-17T01:42:17.228Z,98360.53
2023-02-17T01:45:28.801Z,98359.81
2023-02-17T01:48:01.600Z,98349.34
2023-02-17T01:50:34.294Z,98352.91
2023-02-17T01:53:05.653Z,98348.53
2023-02-17T01:55:34.596Z,98346.94
2023-02-17T01:58:07.558Z,98350.34
2023-02-17T02:00:37.339Z,98340.22
2023-02-17T02:03:08.096Z,98330.22
2023-02-17T02:05:37.631Z,98333.19
2023-02-17T02:08:07.624Z,98332.97
2023-02-17T02:10:36.027Z,98339.53
2023-02-17T02:13:06.985Z,98335.97
2023-02-17T02:15:41.815Z,98341.28
2023-02-17T02:18:39.790Z,98328.59
2023-02-17T02:21:42.395Z,98322.50
2023-02-17T02:24:31.382Z,98319.88
2023-02-17T02:27:27.401Z,98308.28
2023-02-17T02:30:37.120Z,98321.41
2023-02-17T02:33:10.304Z,98317.47
2023-02-17T02:35:46.878Z,98318.72
2023-02-17T02:38:19.325Z,98327.81
2023-02-17T02:40:50.190Z,98328.53
2023-02-17T02:43:18.797Z,98325.19
2023-02-17T02:45:47.170Z,98328.66
2023-02-17T02:48:16.932Z,98320.16
2023-02-17T02:51:16.334Z,98319.88
2023-02-17T02:54:12.094Z,98315.03
2023-02-17T02:57:04.138Z,98316.59
2023-02-17T02:59:44.170Z,98314.75
2023-02-17T03:02:19.719Z,98319.53
2023-02-17T03:04:53.707Z,98327.75
2023-02-17T03:07:25.628Z,98317.47
2023-02-17T03:09:55.964Z,98324.31
2023-02-17T03:12:27.286Z,98315.31
2023-02-17T03:15:01.482Z,98320.63
2023-02-17T03:17:32.354Z,98320.53
2023-02-17T03:20:04.027Z,98314.53
2023-02-17T03:22:36.658Z,98322.84
2023-02-17T03:25:05.709Z,98308.56
2023-02-17T03:27:34.228Z,98301.78
2023-02-17T03:30:02.652Z,98304.94
2023-02-17T03:32:31.275Z,98303.84
2023-02-17T03:34:59.528Z,98309.63
2023-02-17T03:37:29.249Z,98312.81
2023-02-17T03:39:57.503Z,98320.22
2023-02-17T03:42:26.109Z,98319.22
2023-02-17T03:44:54.408Z,98316.22
2023-02-17T03:47:22.719Z,98317.91
2023-02-17T03:49:52.617Z,98316.56
2023-02-17T03:52:21.109Z,98311.41
2023-02-17T03:54:52.465Z,98308.44
2023-02-17T03:57:20.732Z,98322.50
2023-02-17T03:59:48.951Z,98321.44
2023-02-17T04:02:17.320Z,98305.78
2023-02-17T04:04:45.695Z,98311.25
2023-02-17T04:07:14.005Z,98307.38
2023-02-17T04:09:42.310Z,98308.81
2023-02-17T04:12:12.072Z,98320.91
2023-02-17T04:14:40.567Z,98309.31
2023-02-17T04:17:08.884Z,98313.47
2023-02-17T04:19:37.365Z,98311.13
2023-02-17T04:22:08.976Z,98299.72
2023-02-17T04:24:37.655Z,98298.72
2023-02-17T04:27:06.377Z,98299.47
2023-02-17T04:29:36.609Z,98305.97
2023-02-17T04:32:05.312Z,98299.34
2023-02-17T04:34:33.558Z,98300.28
2023-02-17T04:37:01.775Z,98299.47
2023-02-17T04:39:30.088Z,98306.84
2023-02-17T04:41:58.291Z,98299.84
2023-02-17T04:44:26.640Z,98299.00
2023-02-17T04:46:56.320Z,98288.41
2023-02-17T04:49:24.659Z,98298.38
2023-02-17T04:51:53.158Z,98306.84
2023-02-17T04:54:22.922Z,98307.75
2023-02-17T04:56:53.627Z,98308.22
2023-02-17T04:59:26.914Z,98309.91
2023-02-17T05:02:14.417Z,98303.00
2023-02-17T05:07:56.141Z,98301.28
2023-02-17T05:10:24.430Z,98300.88
2023-02-17T05:12:53.491Z,98300.44
2023-02-17T05:15:21.939Z,98308.38
2023-02-17T05:17:51.722Z,98307.38
2023-02-17T05:20:20.083Z,98307.38
2023-02-17T05:22:48.379Z,98292.63
2023-02-17T05:25:16.714Z,98290.66
2023-02-17T05:27:45.164Z,98293.91
2023-02-17T05:30:14.363Z,98299.06
2023-02-17T05:32:42.756Z,98301.28
2023-02-17T05:35:12.463Z,98302.19
2023-02-17T05:37:40.906Z,98303.41
2023-02-17T05:40:09.861Z,98308.44
2023-02-17T05:42:38.184Z,98311.19
2023-02-17T05:45:06.887Z,98306.81
2023-02-17T05:47:35.602Z,98310.28
2023-02-17T05:50:03.946Z,98307.44
2023-02-17T05:52:37.038Z,98311.94
2023-02-17T05:55:06.035Z,98303.91
2023-02-17T05:57:34.317Z,98305.59
2023-02-17T06:00:02.681Z,98301.28
2023-02-17T06:02:40.588Z,98295.19
2023-02-17T06:05:10.456Z,98293.25
2023-02-17T06:07:40.447Z,98302.66
2023-02-17T06:10:11.114Z,98310.72
2023-02-17T06:12:39.502Z,98314.13
2023-02-17T06:15:09.062Z,98307.94
2023-02-17T06:17:37.384Z,98310.28
2023-02-17T06:20:06.062Z,98313.75
2023-02-17T06:22:34.346Z,98314.25
2023-02-17T06:25:04.133Z,98318.38
2023-02-17T06:27:32.924Z,98314.81
2023-02-17T06:30:01.224Z,98308.16
2023-02-17T06:32:29.847Z,98307.81
2023-02-17T06:34:59.289Z,98306.22
2023-02-17T06:37:27.533Z,98311.00
2023-02-17T06:39:55.868Z,98316.69
2023-02-17T06:42:25.575Z,98327.00
2023-02-17T06:44:53.885Z,98323.03
2023-02-17T06:47:22.161Z,98321.59
2023-02-17T06:49:51.007Z,98323.56
2023-02-17T06:52:19.538Z,98321.41
2023-02-17T06:54:48.441Z,98316.69
2023-02-17T06:57:17.483Z,98319.53
2023-02-17T06:59:47.259Z,98329.31
2023-02-17T07:02:16.171Z,98327.22
2023-02-17T07:04:45.024Z,98318.28
2023-02-17T07:07:13.500Z,98314.56
2023-02-17T07:09:42.049Z,98319.94
2023-02-17T07:12:10.338Z,98321.25
2023-02-17T07:14:38.686Z,98329.31
2023-02-17T07:17:08.339Z,98317.91
2023-02-17T07:19:36.705Z,98312.91
2023-02-17T07:22:04.983Z,98308.09
2023-02-17T07:24:34.107Z,98313.59
2023-02-17T07:27:02.429Z,98317.56
2023-02-17T07:29:30.699Z,98313.19
2023-02-17T07:31:58.995Z,98307.22
2023-02-17T07:34:28.795Z,98313.22
2023-02-17T07:36:57.041Z,98312.03
2023-02-17T07:39:25.326Z,98317.25
2023-02-17T07:41:53.614Z,98309.22
2023-02-17T07:44:21.942Z,98302.53
2023-02-17T07:46:51.147Z,98308.28
2023-02-17T07:49:19.465Z,98295.06
2023-02-17T07:51:49.160Z,98292.78
2023-02-17T07:54:19.076Z,98281.97
2023-02-17T07:56:47.436Z,98285.84
2023-02-17T07:59:16.007Z,98293.16
2023-02-17T08:01:44.409Z,98286.94
2023-02-17T08:04:12.722Z,98283.25
2023-02-17T08:06:40.996Z,98283.41
2023-02-17T08:09:28.578Z,98279.34
2023-02-17T08:12:14.528Z,98278.03
2023-02-17T08:14:42.842Z,98271.25
2023-02-17T08:17:11.203Z,98269.66
2023-02-17T08:19:48.051Z,98278.50
2023-02-17T08:22:17.339Z,98265.31
2023-02-17T08:24:47.420Z,98282.03
2023-02-17T08:27:16.487Z,98284.41
2023-02-17T08:29:45.087Z,98264.50
2023-02-17T08:32:13.708Z,98267.63
2023-02-17T08:34:42.077Z,98260.03
2023-02-17T08:37:10.835Z,98249.81
2023-02-17T08:39:39.489Z,98249.25
2023-02-17T08:42:09.228Z,98253.16
2023-02-17T08:44:38.064Z,98246.53
2023-02-17T08:47:07.326Z,98244.22
2023-02-17T08:49:36.001Z,98254.66
2023-02-17T08:52:04.791Z,98247.84
2023-02-17T08:54:33.977Z,98252.72
2023-02-17T08:57:03.998Z,98252.53
2023-02-17T08:59:33.685Z,98248.09
2023-02-17T09:02:01.966Z,98248.00
2023-02-17T09:04:30.294Z,98249.28
2023-02-17T09:06:58.679Z,98243.19
2023-02-17T09:09:28.032Z,98236.03
2023-02-17T09:11:57.398Z,98226.72
2023-02-17T09:14:25.882Z,98225.47
2023-02-17T09:16:56.328Z,98225.41
2023-02-17T09:19:24.893Z,98228.38
2023-02-17T09:21:53.208Z,98217.28
2023-02-17T09:24:21.503Z,98221.00
2023-02-17T09:26:49.854Z,98205.53
2023-02-17T09:29:18.233Z,98202.22
2023-02-17T09:31:46.733Z,98207.13
2023-02-17T09:34:16.644Z,98200.47
2023-02-17T09:36:45.496Z,98202.31
2023-02-17T09:39:15.047Z,98193.69
2023-02-17T09:41:47.301Z,98197.97
2023-02-17T09:44:22.305Z,98193.66
2023-02-17T09:47:01.674Z,98198.88
2023-02-17T09:49:37.854Z,98199.72
2023-02-17T09:52:10.513Z,98195.38
2023-02-17T09:54:43.205Z,98190.16
2023-02-17T09:57:19.759Z,98195.38
2023-02-17T09:59:51.054Z,98189.31
2023-02-17T10:02:25.517Z,98191.84
2023-02-17T10:04:55.744Z,98188.31
2023-02-17T10:07:27.402Z,98192.56
2023-02-17T10:09:58.816Z,98176.13
2023-02-17T10:12:29.590Z,98178.69
2023-02-17T10:15:00.951Z,98174.88
2023-02-17T10:17:34.791Z,98186.19
2023-02-17T10:20:08.725Z,98184.41
2023-02-17T10:22:37.320Z,98179.16
2023-02-17T10:25:15.745Z,98180.13
2023-02-17T10:27:45.323Z,98170.41
2023-02-17T10:30:32.831Z,98176.63
2023-02-17T10:33:03.110Z,98159.06
2023-02-17T10:35:43.735Z,98157.06
2023-02-17T10:38:17.601Z,98146.97
2023-02-17T10:40:48.846Z,98140.69
2023-02-17T10:43:23.053Z,98140.38
2023-02-17T10:45:53.594Z,98131.41
2023-02-17T10:48:24.660Z,98132.72
2023-02-17T10:50:55.746Z,98137.38
2023-02-17T10:53:25.252Z,98134.53
2023-02-17T10:55:59.228Z,98139.44
2023-02-17T10:58:32.241Z,98124.63
2023-02-17T11:01:02.726Z,98126.78
2023-02-17T11:03:32.542Z,98121.56
2023-02-17T11:06:03.778Z,98119.00
2023-02-17T11:08:35.218Z,98115.47
2023-02-17T11:11:06.722Z,98101.91
2023-02-17T11:13:37.680Z,98099.22
2023-02-17T11:16:07.617Z,98109.06
2023-02-17T11:18:37.722Z,98114.94
2023-02-17T11:21:09.764Z,98113.66
2023-02-17T11:23:48.958Z,98115.63
2023-02-17T11:26:22.088Z,98107.59
2023-02-17T11:28:50.355Z,98101.63
2023-02-17T11:31:25.027Z,98100.78
2023-02-17T11:33:55.259Z,98091.91
2023-02-17T11:36:28.832Z,98083.84
2023-02-17T11:38:57.346Z,98078.91
2023-02-17T11:41:25.736Z,98082.16
2023-02-17T11:43:55.749Z,98072.41
2023-02-17T11:46:31.880Z,98074.38
2023-02-17T11:49:41.652Z,98071.94
2023-02-17T11:52:23.743Z,98064.25
2023-02-17T11:55:04.622Z,98070.31
2023-02-17T11:57:39.098Z,98067.50
2023-02-17T12:00:19.727Z,98062.41
2023-02-17T12:03:24.564Z,98059.44
2023-02-17T12:06:03.260Z,98050.53
2023-02-17T12:08:46.421Z,98049.28
2023-02-17T12:11:21.746Z,98053.19
2023-02-17T12:13:59.352Z,98041.91
2023-02-17T12:16:43.930Z,98046.22
2023-02-17T12:19:31.603Z,98043.59
2023-02-17T12:22:05.740Z,98043.50
2023-02-17T12:24:48.017Z,98039.75
2023-02-17T12:27:25.831Z,98037.22
2023-02-17T12:30:14.508Z,98028.22
2023-02-17T12:33:01.844Z,98024.16
2023-02-17T12:35:44.990Z,98022.94
2023-02-17T12:38:17.010Z,98012.56
2023-02-17T12:40:49.603Z,98014.34
2023-02-17T12:43:25.911Z,98014.25
2023-02-17T12:45:56.567Z,98011.81
2023-02-17T12:48:29.737Z,98004.81
2023-02-17T12:51:02.326Z,98003.03
2023-02-17T12:53:41.952Z,97997.75
2023-02-17T12:56:28.616Z,98002.41
2023-02-17T12:59:00.010Z,97988.78
2023-02-17T13:01:33.292Z,97986.94
2023-02-17T13:04:01.812Z,97988.28
2023-02-17T13:06:34.364Z,97981.47
2023-02-17T13:09:06.828Z,97977.41
2023-02-17T13:11:37.175Z,97983.84
2023-02-17T13:14:12.288Z,97980.72
2023-02-17T13:16:44.762Z,97983.47
2023-02-17T13:19:14.675Z,97980.84
2023-02-17T13:21:53.794Z,97983.06
2023-02-17T13:24:34.198Z,97969.16
2023-02-17T13:27:24.166Z,97974.94
2023-02-17T13:30:00.813Z,97970.44
2023-02-17T13:32:30.159Z,97973.44
2023-02-17T13:35:05.815Z,97968.28
2023-02-17T13:37:43.359Z,97967.91
2023-02-17T13:40:32.320Z,97969.25
2023-02-17T13:43:10.391Z,97971.63
2023-02-17T13:45:42.769Z,97967.84
2023-02-17T13:48:23.059Z,97970.44
2023-02-17T13:50:52.841Z,97970.28
2023-02-17T13:53:25.035Z,97967.50
2023-02-17T13:55:54.167Z,97971.97
2023-02-17T13:58:29.496Z,97970.22
2023-02-17T14:00:58.588Z,97967.63
2023-02-17T14:03:29.961Z,97966.03
2023-02-17T14:05:59.602Z,97964.78
2023-02-17T14:08:35.855Z,97965.91
2023-02-17T14:11:10.571Z,97964.16
2023-02-17T14:13:45.756Z,97963.13
2023-02-17T14:16:30.968Z,97962.13
2023-02-17T14:19:03.825Z,97958.72
2023-02-17T14:21:32.667Z,97957.75
2023-02-17T14:24:01.536Z,97958.22
2023-02-17T14:26:32.893Z,97955.66
2023-02-17T14:29:05.552Z,97947.56
2023-02-17T14:31:43.141Z,97939.88
2023-02-17T14:34:25.875Z,97944.84
2023-02-17T14:36:54.457Z,97940.75
2023-02-17T14:39:23.365Z,97930.88
2023-02-17T14:41:52.033Z,97933.69
2023-02-17T14:44:22.204Z,97930.31
2023-02-17T14:46:50.587Z,97933.88
2023-02-17T14:49:19.711Z,97949.59
2023-02-17T14:51:49.018Z,97942.69
2023-02-17T14:54:19.946Z,97932.22
2023-02-17T14:56:51.149Z,97937.59
2023-02-17T14:59:19.599Z,97929.72
2023-02-17T15:01:51.126Z,97940.19
2023-02-17T15:04:20.894Z,97926.53
2023-02-17T15:06:51.122Z,97921.47
2023-02-17T15:09:24.158Z,97918.00
2023-02-17T15:11:53.531Z,97938.97
2023-02-17T15:14:23.405Z,97939.06
2023-02-17T15:16:53.240Z,97929.63
2023-02-17T15:19:21.733Z,97931.44
2023-02-17T15:21:52.837Z,97926.31
2023-02-17T15:24:26.493Z,97923.69
2023-02-17T15:26:58.108Z,97920.94
2023-02-17T15:29:27.767Z,97923.88
2023-02-17T15:31:58.656Z,97924.84
2023-02-17T15:34:34.239Z,97925.03
2023-02-17T15:37:03.333Z,97918.25
2023-02-17T15:39:34.272Z,97924.41
2023-02-17T15:42:33.896Z,97924.47
2023-02-17T15:45:08.580Z,97921.06
2023-02-17T15:47:43.065Z,97922.81
2023-02-17T15:50:20.171Z,97920.31
2023-02-17T15:52:50.650Z,97916.72
2023-02-17T15:55:21.344Z,97911.50
2023-02-17T15:57:54.420Z,97914.03
2023-02-17T16:00:26.897Z,97911.53
2023-02-17T16:02:58.416Z,97909.03
2023-02-17T16:05:30.835Z,97904.00
2023-02-17T16:08:00.281Z,97905.91
2023-02-17T16:10:31.866Z,97914.59
2023-02-17T16:13:02.392Z,97911.19
2023-02-17T16:15:33.139Z,97913.78
2023-02-17T16:18:06.908Z,97909.47
2023-02-17T16:20:38.171Z,97917.25
2023-02-17T16:23:09.945Z,97915.53
2023-02-17T16:25:38.413Z,97920.72
2023-02-17T16:28:09.997Z,97915.56
2023-02-17T16:30:40.676Z,97918.16
2023-02-17T16:33:12.692Z,97921.63
2023-02-17T16:35:42.682Z,97919.91
2023-02-17T16:38:16.376Z,97916.47
2023-02-17T16:40:48.851Z,97917.28
2023-02-17T16:43:18.607Z,97920.75
2023-02-17T16:45:55.755Z,97920.78
2023-02-17T16:48:28.682Z,97923.34
2023-02-17T16:50:57.806Z,97931.94
2023-02-17T16:53:26.923Z,97923.31
2023-02-17T16:55:56.535Z,97919.88
2023-02-17T16:58:27.256Z,97922.41
2023-02-17T17:00:57.455Z,97921.53
2023-02-17T17:03:28.543Z,97925.81
2023-02-17T17:05:57.674Z,97924.16
2023-02-17T17:08:28.086Z,97935.28
2023-02-17T17:10:57.555Z,97927.59
2023-02-17T17:13:28.346Z,97926.72
2023-02-17T17:15:59.465Z,97937.75
2023-02-17T17:18:30.284Z,97937.66
2023-02-17T17:20:59.549Z,97933.44
2023-02-17T17:23:28.983Z,97933.34
2023-02-17T17:25:59.784Z,97937.50
2023-02-17T17:28:28.928Z,97930.56
2023-02-17T17:31:01.219Z,97931.38
2023-02-17T17:33:36.514Z,97928.66
2023-02-17T17:36:15.157Z,97932.06
2023-02-17T17:38:44.552Z,97932.84
2023-02-17T17:41:15.514Z,97934.53
2023-02-17T17:43:47.269Z,97930.19
2023-02-17T17:46:18.925Z,97929.34
2023-02-17T17:48:52.151Z,97930.13
2023-02-17T17:51:24.617Z,97948.06
2023-02-17T17:53:59.322Z,97945.59
2023-02-17T17:56:32.907Z,97946.69
2023-02-17T17:59:08.202Z,97938.88
2023-02-17T18:01:38.242Z,97948.31
2023-02-17T18:04:10.229Z,97947.31
2023-02-17T18:06:42.290Z,97962.78
2023-02-17T18:09:25.784Z,97957.50
2023-02-17T18:12:01.160Z,97957.22
2023-02-17T18:14:32.519Z,97955.44
2023-02-17T18:17:03.340Z,97964.22
2023-02-17T18:19:35.723Z,97960.63
2023-02-17T18:22:08.202Z,97972.31
2023-02-17T18:24:40.015Z,97976.47
2023-02-17T18:27:10.743Z,97975.53
2023-02-17T18:29:43.553Z,97971.94
2023-02-17T18:32:13.473Z,97977.19
2023-02-17T18:34:47.128Z,97982.88
2023-02-17T18:37:19.690Z,97985.44
2023-02-17T18:39:51.219Z,97982.72
2023-02-17T18:42:21.332Z,97980.06
2023-02-17T18:44:50.856Z,97988.59
2023-02-17T18:47:20.298Z,97982.06
2023-02-17T18:49:52.240Z,97979.25
2023-02-17T18:52:31.661Z,97985.09
2023-02-17T18:55:11.269Z,97982.47
2023-02-17T18:57:45.253Z,97979.22
2023-02-17T19:00:25.133Z,97971.00
2023-02-17T19:02:56.102Z,97972.53
2023-02-17T19:05:29.295Z,97964.91
2023-02-17T19:07:59.127Z,97961.25
2023-02-17T19:10:29.096Z,97955.81
2023-02-17T19:12:58.430Z,97958.31
2023-02-17T19:15:28.446Z,97956.00
2023-02-17T19:18:02.374Z,97956.06
2023-02-17T19:20:36.536Z,97952.47
2023-02-17T19:23:08.214Z,97959.03
2023-02-17T19:25:40.152Z,97961.34
2023-02-17T19:28:18.751Z,97962.56
2023-02-17T19:30:50.974Z,97968.94
2023-02-17T19:33:21.995Z,97962.25
2023-02-17T19:35:54.498Z,97955.03
2023-02-17T19:38:26.209Z,97952.44
2023-02-17T19:40:56.515Z,97956.88
2023-02-17T19:43:27.262Z,97949.84
2023-02-17T19:45:57.359Z,97951.66
2023-02-17T19:48:33.324Z,97941.38
2023-02-17T19:51:07.757Z,97951.34
2023-02-17T19:53:38.594Z,97937.53
2023-02-17T19:56:12.352Z,97945.06
2023-02-17T19:58:43.421Z,97946.88
2023-02-17T20:01:17.825Z,97949.44
2023-02-17T20:03:49.492Z,97943.16
2023-02-17T20:06:22.928Z,97952.56
2023-02-17T20:09:00.277Z,97951.91
2023-02-17T20:11:33.729Z,97943.25
2023-02-17T20:14:05.101Z,97947.47
2023-02-17T20:16:34.982Z,97945.94
2023-02-17T20:19:05.531Z,97941.41
2023-02-17T20:21:38.939Z,97950.53
2023-02-17T20:24:10.832Z,97941.84
2023-02-17T20:26:42.422Z,97953.41
2023-02-17T20:29:13.216Z,97958.13
2023-02-17T20:31:43.656Z,97963.34
2023-02-17T20:34:24.445Z,97961.53
2023-02-17T20:36:56.410Z,97959.97
2023-02-17T20:39:28.113Z,97964.25
2023-02-17T20:41:59.412Z,97962.41
2023-02-17T20:44:29.636Z,97958.84
2023-02-17T20:47:01.149Z,97964.19
2023-02-17T20:49:31.723Z,97943.59
2023-02-17T20:52:06.178Z,97940.84
2023-02-17T20:54:36.614Z,97942.41
2023-02-17T20:57:11.810Z,97937.94
2023-02-17T20:59:41.623Z,97952.69
2023-02-17T21:02:12.506Z,97932.63
2023-02-17T21:04:41.686Z,97926.16
2023-02-17T21:07:17.657Z,97919.25
2023-02-17T21:09:47.912Z,97937.94
2023-02-17T21:12:17.171Z,97933.75
2023-02-17T21:14:47.450Z,97923.59
2023-02-17T21:17:17.056Z,97927.16
2023-02-17T21:19:47.398Z,97937.16
2023-02-17T21:22:18.196Z,97925.88
2023-02-17T21:24:47.687Z,97919.84
2023-02-17T21:27:16.961Z,97918.09
2023-02-17T21:29:45.425Z,97920.75
2023-02-17T21:32:14.300Z,97914.69
2023-02-17T21:34:43.079Z,97924.81
2023-02-17T21:37:16.912Z,97924.88
2023-02-17T21:39:47.224Z,97929.47
2023-02-17T21:42:39.255Z,97929.41
2023-02-17T21:45:09.551Z,97932.34
2023-02-17T21:47:39.081Z,97931.13
2023-02-17T21:50:09.238Z,97923.53
2023-02-17T21:52:38.714Z,97920.03
2023-02-17T21:55:10.067Z,97929.53
2023-02-17T21:57:38.306Z,97931.06
2023-02-17T22:00:10.873Z,97929.72
2023-02-17T22:02:45.363Z,97922.84
2023-02-17T22:05:14.711Z,97916.00
2023-02-17T22:07:44.127Z,97926.03
2023-02-17T22:10:16.184Z,97928.13
2023-02-17T22:12:50.647Z,97916.34
2023-02-17T22:15:21.292Z,97910.41
2023-02-17T22:17:51.958Z,97900.16
2023-02-17T22:20:21.153Z,97912.50
2023-02-17T22:22:50.821Z,97905.34
2023-02-17T22:25:24.260Z,97905.00
2023-02-17T22:27:54.572Z,97900.78
2023-02-17T22:30:24.561Z,97902.25
2023-02-17T22:32:55.293Z,97898.94
2023-02-17T22:35:24.247Z,97905.47
2023-02-17T22:37:53.126Z,97902.75
2023-02-17T22:40:24.907Z,97908.72
2023-02-17T22:42:54.340Z,97913.06
2023-02-17T22:45:23.119Z,97913.03
2023-02-17T22:47:55.555Z,97906.88
2023-02-17T22:50:24.691Z,97916.16
2023-02-17T22:52:53.032Z,97905.97
2023-02-17T22:55:22.734Z,97907.81
2023-02-17T22:57:51.928Z,97906.16
2023-02-17T23:00:22.472Z,97919.28
2023-02-17T23:02:50.879Z,97909.81
2023-02-17T23:05:20.230Z,97901.56
2023-02-17T23:07:48.415Z,97910.53
2023-02-17T23:10:16.783Z,97913.41
2023-02-17T23:12:46.520Z,97911.75
2023-02-17T23:15:14.994Z,97914.81
2023-02-17T23:17:58.146Z,97909.38
2023-02-17T23:20:26.563Z,97912.09
2023-02-17T23:22:54.800Z,97915.31
2023-02-17T23:25:23.048Z,97918.59
2023-02-17T23:27:53.027Z,97923.78
2023-02-17T23:30:23.194Z,97922.00
2023-02-17T23:32:51.455Z,97927.13
2023-02-17T23:35:19.970Z,97924.56
2023-02-17T23:37:50.927Z,97916.97
2023-02-17T23:40:19.856Z,97920.97
2023-02-17T23:42:48.112Z,97910.50
2023-02-17T23:45:17.817Z,97916.31
2023-02-17T23:47:46.220Z,97919.50
2023-02-17T23:50:16.972Z,97926.09
2023-02-17T23:52:45.415Z,97915.91
2023-02-17T23:55:13.702Z,97919.00
2023-02-17T23:57:41.943Z,97929.91
